Time;durP1;ratioP1;P1;durP2;ratioP2;P2;SDS_P1;SDS_P2;PMS_P1;PMS_P2;Temp;Humidity;BMP_temperature;BMP_pressure;BME280_temperature;BME280_humidity;BME280_pressure;Samples;Min_cycle;Max_cycle;Signal;HPM_P1;HPM_P2
2022/08/02 00:00:48;;;;;;;2.38;1.88;;;16.10;12.70;;;;;;5090096;28;34307;-79
2022/08/02 00:03:32;;;;;;;2.00;1.80;;;16.10;12.70;;;;;;5088469;27;35508;-78
2022/08/02 00:05:58;;;;;;;1.65;1.55;;;16.10;12.80;;;;;;5129081;27;34356;-78
2022/08/02 00:08:24;;;;;;;2.67;1.95;;;16.10;12.80;;;;;;5089309;28;34294;-80
2022/08/02 00:10:51;;;;;;;2.30;2.10;;;16.10;12.90;;;;;;5106133;28;34278;-78
2022/08/02 00:13:17;;;;;;;3.42;1.85;;;16.00;12.90;;;;;;5120206;27;35811;-78
2022/08/02 00:15:42;;;;;;;2.03;1.80;;;16.00;12.90;;;;;;5068981;28;34202;-78
2022/08/02 00:18:08;;;;;;;2.08;1.88;;;16.00;12.90;;;;;;5082254;28;34170;-78
2022/08/02 00:20:35;;;;;;;1.92;1.73;;;15.90;13.00;;;;;;5069157;27;33903;-79
2022/08/02 00:23:01;;;;;;;2.15;1.63;;;15.90;13.00;;;;;;5095474;28;35965;-78
2022/08/02 00:25:26;;;;;;;2.50;1.83;;;15.90;13.00;;;;;;5108240;27;34633;-78
2022/08/02 00:27:52;;;;;;;2.08;1.88;;;15.80;12.90;;;;;;5090125;28;34403;-79
2022/08/02 00:30:18;;;;;;;2.00;1.80;;;15.80;13.00;;;;;;5089035;28;34563;-78
2022/08/02 00:32:44;;;;;;;2.88;1.50;;;15.80;13.00;;;;;;5116080;27;35157;-79
2022/08/02 00:35:10;;;;;;;1.88;1.67;;;15.80;13.00;;;;;;5118182;27;34092;-79
2022/08/02 00:37:39;;;;;;;2.20;1.75;;;15.80;13.00;;;;;;5088154;28;34198;-78
2022/08/02 00:40:05;;;;;;;2.45;1.80;;;15.70;13.20;;;;;;5088819;28;34558;-79
2022/08/02 00:42:31;;;;;;;4.00;2.00;;;15.60;13.10;;;;;;5088419;28;35930;-79
2022/08/02 00:44:57;;;;;;;1.80;1.70;;;15.60;13.10;;;;;;5106872;28;33992;-78
2022/08/02 00:47:23;;;;;;;2.22;2.03;;;15.60;13.20;;;;;;5087826;28;34276;-78
2022/08/02 00:49:49;;;;;;;2.20;2.00;;;15.60;13.30;;;;;;5083191;28;34441;-78
2022/08/02 00:52:15;;;;;;;3.17;2.08;;;15.50;13.40;;;;;;5103032;28;35632;-79
2022/08/02 00:54:41;;;;;;;3.55;1.88;;;15.50;13.40;;;;;;5102995;27;34163;-79
2022/08/02 00:57:07;;;;;;;2.20;2.00;;;15.50;13.40;;;;;;5105804;27;34325;-79
2022/08/02 00:59:33;;;;;;;2.10;1.88;;;15.50;13.50;;;;;;5127585;27;34305;-78
2022/08/02 01:01:59;;;;;;;2.08;1.92;;;15.50;13.60;;;;;;5104839;28;36445;-79
2022/08/02 01:04:26;;;;;;;2.22;2.03;;;15.50;13.60;;;;;;5088789;28;34153;-78
2022/08/02 01:06:52;;;;;;;2.30;2.10;;;15.50;13.60;;;;;;5071704;28;34295;-79
2022/08/02 01:09:18;;;;;;;3.10;2.00;;;15.40;13.60;;;;;;5089139;28;34297;-79
2022/08/02 01:11:44;;;;;;;5.70;2.00;;;15.40;13.60;;;;;;5071491;28;36499;-78
2022/08/02 01:14:12;;;;;;;2.00;1.80;;;15.40;13.60;;;;;;5088289;28;34156;-78
2022/08/02 01:16:47;;;;;;;3.10;2.10;;;15.40;13.60;;;;;;5067091;28;34131;-78
2022/08/02 01:19:43;;;;;;;3.50;1.95;;;15.40;14.20;;;;;;5071947;28;35006;-78
2022/08/02 01:22:40;;;;;;;2.28;1.98;;;15.40;14.60;;;;;;5053614;28;36835;-78
2022/08/02 01:25:21;;;;;;;3.33;1.98;;;15.40;15.20;;;;;;5120542;27;33958;-79
2022/08/02 01:28:18;;;;;;;3.03;1.75;;;15.40;14.20;;;;;;5068138;28;34350;-78
2022/08/02 01:30:49;;;;;;;3.03;2.28;;;15.30;15.20;;;;;;5112177;27;34223;-78
2022/08/02 01:33:18;;;;;;;4.13;2.03;;;15.30;13.90;;;;;;5093643;28;34287;-79
2022/08/02 01:35:52;;;;;;;2.83;2.10;;;15.30;13.90;;;;;;5124334;27;34468;-79
2022/08/02 01:38:36;;;;;;;2.20;2.00;;;15.30;14.00;;;;;;5092235;28;34081;-78
2022/08/02 01:41:04;;;;;;;2.15;1.90;;;15.30;15.10;;;;;;5085035;27;34421;-78
2022/08/02 01:43:32;;;;;;;2.20;1.95;;;15.20;13.70;;;;;;5101684;27;35459;-79
2022/08/02 01:46:00;;;;;;;2.20;2.00;;;15.20;13.70;;;;;;5111973;27;34094;-79
2022/08/02 01:48:28;;;;;;;2.20;2.00;;;15.20;13.90;;;;;;5110624;27;34210;-79
2022/08/02 01:50:56;;;;;;;2.40;1.80;;;15.20;14.00;;;;;;5074310;28;34450;-79
2022/08/02 01:53:25;;;;;;;2.97;2.38;;;15.20;13.80;;;;;;5090365;28;35659;-78
2022/08/02 01:55:54;;;;;;;3.20;2.35;;;15.20;13.90;;;;;;5090406;28;34092;-78
2022/08/02 01:58:24;;;;;;;3.17;2.47;;;15.20;14.20;;;;;;5109253;27;34155;-78
2022/08/02 02:00:51;;;;;;;3.63;2.33;;;15.20;14.90;;;;;;5105064;28;34167;-78
2022/08/02 02:03:21;;;;;;;2.45;2.08;;;15.20;14.20;;;;;;5090221;28;34322;-78
2022/08/02 02:05:50;;;;;;;5.25;2.45;;;15.20;14.40;;;;;;5092805;27;34408;-78
2022/08/02 02:08:23;;;;;;;5.00;2.35;;;15.20;14.40;;;;;;5062693;28;34299;-78
2022/08/02 02:10:51;;;;;;;2.60;2.40;;;15.20;14.70;;;;;;5090858;28;34135;-78
2022/08/02 02:13:18;;;;;;;3.30;2.38;;;15.20;14.20;;;;;;5108527;28;34423;-78
2022/08/02 02:15:47;;;;;;;2.60;2.40;;;15.20;14.20;;;;;;5109279;28;34401;-78
2022/08/02 02:18:19;;;;;;;2.63;2.20;;;15.20;14.20;;;;;;5089559;28;34514;-78
2022/08/02 02:20:46;;;;;;;2.63;2.42;;;15.20;14.50;;;;;;5073757;28;34051;-78
2022/08/02 02:23:12;;;;;;;2.95;2.42;;;15.20;14.20;;;;;;5073040;28;35647;-78
2022/08/02 02:25:40;;;;;;;2.67;2.38;;;15.20;14.30;;;;;;5090815;28;34283;-78
2022/08/02 02:28:10;;;;;;;3.92;2.60;;;15.20;14.40;;;;;;5089913;28;34255;-78
2022/08/02 02:30:39;;;;;;;4.30;2.95;;;15.20;14.60;;;;;;5094395;28;34119;-78
2022/08/02 02:33:06;;;;;;;4.72;3.22;;;15.10;14.40;;;;;;5088801;28;35890;-78
2022/08/02 02:35:36;;;;;;;5.45;3.13;;;15.10;14.40;;;;;;5075309;28;34294;-78
2022/08/02 02:38:04;;;;;;;4.57;3.03;;;15.00;14.60;;;;;;5085674;28;34166;-78
2022/08/02 02:40:31;;;;;;;9.40;3.45;;;15.00;14.60;;;;;;5087183;28;34346;-78
2022/08/02 02:42:59;;;;;;;4.00;3.00;;;15.00;14.60;;;;;;5085285;28;35614;-78
2022/08/02 02:45:26;;;;;;;5.75;3.50;;;15.00;14.60;;;;;;5091809;28;34271;-78
2022/08/02 02:47:54;;;;;;;4.35;3.20;;;14.90;14.60;;;;;;5082466;28;34372;-79
2022/08/02 02:50:22;;;;;;;5.50;3.53;;;14.90;14.80;;;;;;5089052;28;34078;-78
2022/08/02 02:52:50;;;;;;;5.55;3.40;;;14.90;14.80;;;;;;5124887;27;36376;-78
2022/08/02 02:55:18;;;;;;;6.43;3.35;;;14.90;14.80;;;;;;5107653;28;34084;-78
2022/08/02 02:57:44;;;;;;;6.10;3.30;;;14.90;14.80;;;;;;5089060;27;34410;-78
2022/08/02 03:00:13;;;;;;;5.55;3.60;;;14.80;14.80;;;;;;5077579;28;34612;-78
2022/08/02 03:02:41;;;;;;;4.75;3.40;;;14.80;15.00;;;;;;5103278;28;35356;-78
2022/08/02 03:05:08;;;;;;;3.50;3.00;;;14.70;15.00;;;;;;5069351;28;34051;-79
2022/08/02 03:07:36;;;;;;;8.63;3.50;;;14.70;15.00;;;;;;5089813;28;34291;-78
2022/08/02 03:10:05;;;;;;;5.65;3.55;;;14.70;15.10;;;;;;5115187;27;34042;-78
2022/08/02 03:12:33;;;;;;;4.05;2.97;;;14.70;15.10;;;;;;5091712;28;35636;-78
2022/08/02 03:15:03;;;;;;;3.63;2.90;;;14.70;15.00;;;;;;5088691;28;34332;-78
2022/08/02 03:17:39;;;;;;;4.97;3.53;;;14.70;15.30;;;;;;5069833;28;34437;-78
2022/08/02 03:20:11;;;;;;;7.00;3.60;;;14.60;16.00;;;;;;5089501;28;34199;-79
2022/08/02 03:22:37;;;;;;;8.80;3.70;;;14.60;15.40;;;;;;5072422;28;35615;-79
2022/08/02 03:25:03;;;;;;;5.50;3.97;;;14.60;15.20;;;;;;5105293;27;34250;-78
2022/08/02 03:27:29;;;;;;;6.45;3.72;;;14.60;15.20;;;;;;5054078;28;34278;-78
2022/08/02 03:29:55;;;;;;;4.25;3.42;;;14.60;15.30;;;;;;5094055;27;34290;-79
2022/08/02 03:32:21;;;;;;;7.45;3.47;;;14.60;15.30;;;;;;5090303;28;35785;-79
2022/08/02 03:34:47;;;;;;;6.75;3.78;;;14.60;15.40;;;;;;5089145;28;34256;-78
2022/08/02 03:37:14;;;;;;;4.82;3.72;;;14.60;15.40;;;;;;5071641;28;34070;-78
2022/08/02 03:39:40;;;;;;;6.00;3.60;;;14.60;15.40;;;;;;5088670;28;34475;-78
2022/08/02 03:42:07;;;;;;;7.10;3.85;;;14.60;15.30;;;;;;5087902;28;36414;-78
2022/08/02 03:44:34;;;;;;;4.35;3.20;;;14.60;15.30;;;;;;5107333;28;34105;-78
2022/08/02 03:47:00;;;;;;;5.20;3.63;;;14.60;15.30;;;;;;5088055;28;34119;-78
2022/08/02 03:49:30;;;;;;;5.35;3.67;;;14.60;15.30;;;;;;5088852;28;34076;-78
2022/08/02 03:51:56;;;;;;;7.40;3.45;;;14.60;15.40;;;;;;5096030;28;34309;-78
2022/08/02 03:54:23;;;;;;;4.22;3.35;;;14.60;15.40;;;;;;5087850;28;34306;-78
2022/08/02 03:56:49;;;;;;;6.28;3.53;;;14.60;15.40;;;;;;5104372;28;34341;-78
2022/08/02 03:59:14;;;;;;;8.20;3.53;;;14.60;15.40;;;;;;5088134;28;34205;-78
2022/08/02 04:01:41;;;;;;;6.20;3.95;;;14.50;15.40;;;;;;5088328;28;36047;-78
2022/08/02 04:04:07;;;;;;;4.82;3.50;;;14.60;15.40;;;;;;5105735;28;34126;-78
2022/08/02 04:06:34;;;;;;;5.57;3.20;;;14.50;15.40;;;;;;5088339;28;34164;-78
2022/08/02 04:08:59;;;;;;;6.90;3.47;;;14.50;15.40;;;;;;5088240;28;34475;-79
2022/08/02 04:11:33;;;;;;;8.52;4.20;;;14.50;15.40;;;;;;5087715;28;36623;-78
2022/08/02 04:14:03;;;;;;;4.80;3.67;;;14.40;15.40;;;;;;5087770;28;34100;-78
2022/08/02 04:16:42;;;;;;;5.47;3.55;;;14.40;15.40;;;;;;5096449;28;34175;-79
2022/08/02 04:19:15;;;;;;;5.07;3.50;;;14.40;16.20;;;;;;5088512;28;34067;-78
2022/08/02 04:21:45;;;;;;;5.50;3.63;;;14.40;15.60;;;;;;5092506;28;36494;-79
2022/08/02 04:24:13;;;;;;;5.72;3.00;;;14.30;15.80;;;;;;5105849;28;34164;-78
2022/08/02 04:26:42;;;;;;;5.43;3.40;;;14.30;15.70;;;;;;5079985;28;34201;-78
2022/08/02 04:29:11;;;;;;;4.93;3.13;;;14.30;15.80;;;;;;5051120;28;33979;-78
2022/08/02 04:31:38;;;;;;;4.43;3.10;;;14.30;15.80;;;;;;5115954;27;36446;-78
2022/08/02 04:34:04;;;;;;;4.22;2.90;;;14.30;15.80;;;;;;5121512;27;34455;-78
2022/08/02 04:36:30;;;;;;;4.13;3.15;;;14.30;15.80;;;;;;5105790;28;34320;-78
2022/08/02 04:38:56;;;;;;;3.20;2.88;;;14.30;15.80;;;;;;5086950;28;34109;-78
2022/08/02 04:41:22;;;;;;;6.60;3.38;;;14.30;15.80;;;;;;5099710;28;35772;-78
2022/08/02 04:43:48;;;;;;;3.92;3.05;;;14.30;15.90;;;;;;5105275;28;34278;-78
2022/08/02 04:46:33;;;;;;;2.92;2.63;;;14.30;15.90;;;;;;5104185;28;34046;-78
2022/08/02 04:48:59;;;;;;;5.63;3.05;;;14.30;15.90;;;;;;5083857;28;34010;-78
2022/08/02 04:51:25;;;;;;;3.45;2.92;;;14.30;15.90;;;;;;5066284;28;36753;-78
2022/08/02 04:53:51;;;;;;;4.35;3.28;;;14.30;15.80;;;;;;5075376;28;34144;-80
2022/08/02 04:56:17;;;;;;;3.28;2.97;;;14.30;15.80;;;;;;5104268;28;34159;-78
2022/08/02 04:58:43;;;;;;;4.72;3.08;;;14.30;15.80;;;;;;5120811;27;34623;-77
2022/08/02 05:01:09;;;;;;;3.22;2.92;;;14.40;15.80;;;;;;5120046;27;35818;-78
2022/08/02 05:03:35;;;;;;;4.05;2.95;;;14.40;15.80;;;;;;5118331;27;34119;-78
2022/08/02 05:06:01;;;;;;;3.60;2.88;;;14.40;15.80;;;;;;5080293;28;34249;-78
2022/08/02 05:08:28;;;;;;;3.10;2.70;;;14.40;15.80;;;;;;5099725;28;34180;-78
2022/08/02 05:10:54;;;;;;;4.63;2.88;;;14.50;15.80;;;;;;5086202;28;35511;-78
2022/08/02 05:13:20;;;;;;;5.60;3.05;;;14.50;15.80;;;;;;5104803;28;34184;-78
2022/08/02 05:15:50;;;;;;;4.20;2.65;;;14.60;15.80;;;;;;5101872;28;34328;-78
2022/08/02 05:18:16;;;;;;;2.65;2.42;;;14.60;15.90;;;;;;5104934;27;34531;-78
2022/08/02 05:20:42;;;;;;;3.33;3.03;;;14.70;15.70;;;;;;5102513;27;35641;-78
2022/08/02 05:23:09;;;;;;;6.55;3.10;;;15.00;15.60;;;;;;5086024;28;34564;-78
2022/08/02 05:25:35;;;;;;;4.18;3.22;;;15.60;14.90;;;;;;5082844;28;34301;-78
2022/08/02 05:28:00;;;;;;;3.83;2.60;;;16.40;14.00;;;;;;5089850;28;34203;-78
2022/08/02 05:30:26;;;;;;;2.80;2.53;;;17.10;12.90;;;;;;5094992;27;35851;-79
2022/08/02 05:32:52;;;;;;;3.40;2.72;;;17.80;12.00;;;;;;5100270;28;34231;-78
2022/08/02 05:35:20;;;;;;;4.47;2.65;;;18.30;11.30;;;;;;5092918;28;34298;-78
2022/08/02 05:37:47;;;;;;;3.30;2.33;;;18.70;10.80;;;;;;5105292;28;34056;-78
2022/08/02 05:40:14;;;;;;;2.47;2.28;;;19.00;10.40;;;;;;5105326;28;34371;-79
2022/08/02 05:42:41;;;;;;;2.78;2.55;;;19.30;10.30;;;;;;5088714;28;34236;-78
2022/08/02 05:45:07;;;;;;;3.55;2.38;;;19.50;10.20;;;;;;5071004;28;34203;-78
2022/08/02 05:47:34;;;;;;;4.88;4.00;;;19.70;10.00;;;;;;5086060;28;34205;-78
2022/08/02 05:50:00;;;;;;;3.75;2.92;;;19.90;9.60;;;;;;5086825;28;35601;-78
2022/08/02 05:52:35;;;;;;;2.70;2.50;;;20.00;9.50;;;;;;5094734;27;34374;-78
2022/08/02 05:55:07;;;;;;;2.42;2.22;;;20.20;9.20;;;;;;5118671;27;34087;-78
2022/08/02 05:57:56;;;;;;;3.28;2.92;;;20.60;9.00;;;;;;5081106;28;34401;-78
2022/08/02 06:00:23;;;;;;;4.97;2.65;;;21.00;8.40;;;;;;5055098;28;35972;-78
2022/08/02 06:03:15;;;;;;;5.68;2.65;;;21.40;8.00;;;;;;5112966;27;34366;-78
2022/08/02 06:05:53;;;;;;;3.60;2.47;;;21.60;7.20;;;;;;5054233;28;34108;-79
2022/08/02 06:08:23;;;;;;;3.88;2.58;;;21.30;7.60;;;;;;5061376;28;34233;-80
2022/08/02 06:10:55;;;;;;;5.10;2.40;;;21.00;8.30;;;;;;5059704;28;35576;-79
2022/08/02 06:13:22;;;;;;;2.58;2.30;;;20.60;8.70;;;;;;5078249;28;34167;-80
2022/08/02 06:15:52;;;;;;;2.53;2.33;;;20.40;9.30;;;;;;5069246;28;34264;-79
2022/08/02 06:18:20;;;;;;;3.05;2.75;;;20.40;9.70;;;;;;5047688;28;34461;-79
2022/08/02 06:20:50;;;;;;;2.70;2.47;;;20.30;9.90;;;;;;5067417;28;35910;-79
2022/08/02 06:23:21;;;;;;;2.92;2.72;;;20.60;9.80;;;;;;5070621;28;35458;-79
2022/08/02 06:25:50;;;;;;;3.90;2.95;;;21.20;9.10;;;;;;5068164;28;34950;-80
2022/08/02 06:28:18;;;;;;;2.83;2.60;;;22.10;8.20;;;;;;5055375;28;34039;-79
2022/08/02 06:30:45;;;;;;;3.28;2.80;;;22.90;6.90;;;;;;5053150;28;35600;-80
2022/08/02 06:33:12;;;;;;;3.63;2.78;;;23.50;5.90;;;;;;5072622;28;34306;-80
2022/08/02 06:36:03;;;;;;;3.08;2.78;;;23.90;4.90;;;;;;5058706;28;35453;-79
2022/08/02 06:38:37;;;;;;;5.53;2.65;;;24.60;3.40;;;;;;5058458;28;34599;-80
2022/08/02 06:41:08;;;;;;;2.85;2.55;;;25.30;3.00;;;;;;5057960;28;36229;-80
2022/08/02 06:43:46;;;;;;;3.70;3.08;;;25.90;2.20;;;;;;5075367;28;34357;-80
2022/08/02 06:46:13;;;;;;;2.67;2.47;;;26.10;1.00;;;;;;5043727;28;34631;-80
2022/08/02 06:48:39;;;;;;;2.75;2.50;;;26.30;1.60;;;;;;5055766;28;34576;-80
2022/08/02 06:51:10;;;;;;;2.63;2.35;;;26.60;1.10;;;;;;5101229;27;35564;-79
2022/08/02 06:53:37;;;;;;;3.08;2.75;;;26.60;1.00;;;;;;5073165;28;34081;-80
2022/08/02 06:56:04;;;;;;;3.15;2.85;;;26.60;1.00;;;;;;5064622;28;34024;-80
2022/08/02 06:58:30;;;;;;;2.85;2.35;;;26.80;1.00;;;;;;5076420;28;34319;-79
2022/08/02 07:00:57;;;;;;;2.58;2.38;;;27.10;1.00;;;;;;5064497;28;36045;-78
2022/08/02 07:03:47;;;;;;;2.35;2.15;;;27.20;1.00;;;;;;5064351;28;34316;-80
2022/08/02 07:06:13;;;;;;;2.33;2.15;;;27.50;1.00;;;;;;5062309;28;34610;-80
2022/08/02 07:08:41;;;;;;;3.38;2.33;;;27.80;1.00;;;;;;5092880;28;34354;-80
2022/08/02 07:11:08;;;;;;;3.28;2.28;;;28.00;1.00;;;;;;5084771;28;35820;-80
2022/08/02 07:13:35;;;;;;;4.53;2.95;;;28.10;1.00;;;;;;5054326;28;34465;-79
2022/08/02 07:16:05;;;;;;;3.45;2.33;;;28.00;1.00;;;;;;5064324;28;34105;-79
2022/08/02 07:18:30;;;;;;;3.13;2.60;;;27.90;1.00;;;;;;5064137;28;34387;-80
2022/08/02 07:20:57;;;;;;;2.80;2.20;;;28.10;1.00;;;;;;5064333;28;35494;-80
2022/08/02 07:23:23;;;;;;;2.03;1.92;;;28.40;1.00;;;;;;5064684;28;34293;-79
2022/08/02 07:25:49;;;;;;;2.72;2.13;;;28.70;1.00;;;;;;5064521;28;34256;-80
2022/08/02 07:28:15;;;;;;;2.67;2.05;;;28.90;1.00;;;;;;5064901;28;34095;-81
2022/08/02 07:30:42;;;;;;;1.95;1.85;;;29.20;1.00;;;;;;5064685;28;36371;-80
2022/08/02 07:33:08;;;;;;;3.17;2.22;;;29.30;1.00;;;;;;5064518;28;34537;-80
2022/08/02 07:35:35;;;;;;;3.35;2.50;;;29.40;1.00;;;;;;5055860;28;34308;-81
2022/08/02 07:38:02;;;;;;;2.75;2.35;;;29.30;1.00;;;;;;5064478;28;34336;-80
2022/08/02 07:40:29;;;;;;;2.45;2.25;;;29.50;1.00;;;;;;5063033;28;35727;-81
2022/08/02 07:42:56;;;;;;;4.25;2.05;;;29.70;1.00;;;;;;5064194;28;34207;-80
2022/08/02 07:45:23;;;;;;;13.18;2.75;;;29.80;1.00;;;;;;5045844;28;34072;-79
2022/08/02 07:47:50;;;;;;;3.22;2.15;;;29.90;1.00;;;;;;5073099;28;34192;-79
2022/08/02 07:50:19;;;;;;;4.43;2.60;;;30.00;1.00;;;;;;5062311;28;36188;-79
2022/08/02 07:52:46;;;;;;;3.55;2.40;;;29.90;1.00;;;;;;5061594;28;34247;-82
2022/08/02 07:55:17;;;;;;;2.70;2.25;;;29.90;1.00;;;;;;5068357;28;34155;-78
2022/08/02 07:57:45;;;;;;;2.45;2.25;;;29.90;1.00;;;;;;5076906;28;34233;-79
2022/08/02 08:00:16;;;;;;;4.18;2.17;;;29.90;1.00;;;;;;5114259;27;36096;-78
2022/08/02 08:02:42;;;;;;;3.17;2.70;;;30.00;1.00;;;;;;5060630;28;34232;-79
2022/08/02 08:05:09;;;;;;;6.65;2.60;;;30.20;1.00;;;;;;5064611;28;34552;-78
2022/08/02 08:07:35;;;;;;;2.75;2.22;;;30.30;1.00;;;;;;5072430;28;34523;-79
2022/08/02 08:10:02;;;;;;;4.65;2.60;;;30.40;1.00;;;;;;5071765;28;35753;-79
2022/08/02 08:12:28;;;;;;;4.18;2.58;;;30.60;1.00;;;;;;5107006;27;34088;-78
2022/08/02 08:14:55;;;;;;;2.50;2.30;;;30.70;1.00;;;;;;5096931;27;34341;-78
2022/08/02 08:17:21;;;;;;;2.78;2.35;;;30.70;1.00;;;;;;5069137;28;35684;-79
2022/08/02 08:19:48;;;;;;;2.60;2.40;;;30.60;1.00;;;;;;5083715;28;35905;-77
2022/08/02 08:22:14;;;;;;;2.92;2.63;;;30.30;1.00;;;;;;5072604;28;34819;-79
2022/08/02 08:24:40;;;;;;;3.60;2.60;;;30.00;1.00;;;;;;5070344;28;34229;-80
2022/08/02 08:27:09;;;;;;;2.63;2.22;;;30.10;1.00;;;;;;5059538;28;34111;-79
2022/08/02 08:29:35;;;;;;;2.65;2.45;;;30.30;1.00;;;;;;5031435;28;35604;-77
2022/08/02 08:32:01;;;;;;;3.35;2.60;;;30.50;1.00;;;;;;5061125;28;33862;-78
2022/08/02 08:34:30;;;;;;;2.42;2.17;;;30.70;1.00;;;;;;5048271;28;34342;-78
2022/08/02 08:36:56;;;;;;;2.72;2.53;;;30.90;1.00;;;;;;5029814;28;34250;-77
2022/08/02 08:39:22;;;;;;;2.63;2.28;;;31.10;1.00;;;;;;5074881;28;35557;-77
2022/08/02 08:41:48;;;;;;;3.20;2.38;;;31.00;1.00;;;;;;5054786;28;34393;-78
2022/08/02 08:44:14;;;;;;;3.17;2.72;;;31.10;1.00;;;;;;5084336;28;34122;-79
2022/08/02 08:46:43;;;;;;;6.15;2.25;;;31.20;1.00;;;;;;5067941;28;34383;-78
2022/08/02 08:49:21;;;;;;;2.80;2.33;;;31.30;1.00;;;;;;5048519;28;35533;-79
2022/08/02 08:51:50;;;;;;;2.55;2.20;;;31.30;1.00;;;;;;5047589;28;34161;-77
2022/08/02 08:54:17;;;;;;;5.68;2.97;;;30.90;1.00;;;;;;5042173;28;34322;-79
2022/08/02 08:56:44;;;;;;;2.50;2.25;;;30.70;1.00;;;;;;5061795;28;34558;-78
2022/08/02 08:59:10;;;;;;;2.60;2.22;;;30.50;1.00;;;;;;5097831;28;34259;-77
2022/08/02 09:01:36;;;;;;;4.60;2.58;;;30.50;1.00;;;;;;5086446;28;34129;-78
2022/08/02 09:04:40;;;;;;;2.47;1.85;;;30.70;1.00;;;;;;5088102;28;34135;-78
2022/08/02 09:07:06;;;;;;;2.83;2.20;;;30.90;1.00;;;;;;5088955;28;34063;-79
2022/08/02 09:09:54;;;;;;;6.32;2.33;;;31.00;1.00;;;;;;5094273;27;35672;-78
2022/08/02 09:12:57;;;;;;;1.60;1.50;;;31.40;1.00;;;;;;5083649;28;34078;-77
2022/08/02 09:15:24;;;;;;;1.58;1.48;;;31.50;1.00;;;;;;5121834;27;34286;-77
2022/08/02 09:17:52;;;;;;;1.77;1.40;;;31.50;1.00;;;;;;5071799;27;34057;-79
2022/08/02 09:20:18;;;;;;;2.17;2.08;;;31.70;1.00;;;;;;5116332;27;35536;-79
2022/08/02 09:22:46;;;;;;;2.72;2.00;;;31.80;1.00;;;;;;5068296;27;34827;-76
2022/08/02 09:25:15;;;;;;;2.10;1.90;;;31.80;1.00;;;;;;5091327;28;34434;-77
2022/08/02 09:27:41;;;;;;;1.67;1.40;;;31.50;1.00;;;;;;5113855;27;34040;-76
2022/08/02 09:30:13;;;;;;;1.55;1.45;;;31.40;1.00;;;;;;5069144;27;35712;-77
2022/08/02 09:32:48;;;;;;;3.50;1.48;;;31.40;1.00;;;;;;5086830;28;34169;-78
2022/08/02 09:35:32;;;;;;;1.58;1.30;;;31.40;1.00;;;;;;5069431;28;34404;-77
2022/08/02 09:38:13;;;;;;;2.35;1.30;;;31.50;1.00;;;;;;5070140;28;34086;-78
2022/08/02 09:40:40;;;;;;;1.30;1.20;;;31.40;1.00;;;;;;5086284;28;35982;-78
2022/08/02 09:43:08;;;;;;;1.80;1.40;;;31.50;1.00;;;;;;5066111;28;34026;-79
2022/08/02 09:45:35;;;;;;;3.65;1.40;;;31.60;1.00;;;;;;5116590;27;34389;-78
2022/08/02 09:48:05;;;;;;;1.50;1.40;;;31.60;1.00;;;;;;5078058;28;34539;-80
2022/08/02 09:50:31;;;;;;;2.10;1.50;;;31.60;1.00;;;;;;5100297;27;35479;-79
2022/08/02 09:52:58;;;;;;;2.47;1.60;;;31.50;1.00;;;;;;5095989;27;34069;-76
2022/08/02 09:55:25;;;;;;;1.45;1.33;;;31.40;1.00;;;;;;5105945;28;34223;-76
2022/08/02 09:57:52;;;;;;;2.22;1.45;;;31.60;1.00;;;;;;5088526;28;34085;-77
2022/08/02 10:00:18;;;;;;;1.45;1.35;;;31.70;1.00;;;;;;5088554;28;35877;-79
2022/08/02 10:03:15;;;;;;;1.25;1.20;;;31.80;1.00;;;;;;5089197;28;34180;-78
2022/08/02 10:05:48;;;;;;;1.45;1.35;;;31.70;1.00;;;;;;5090669;28;34145;-79
2022/08/02 10:08:15;;;;;;;1.33;1.23;;;31.70;1.00;;;;;;5054838;28;34494;-78
2022/08/02 10:10:42;;;;;;;1.35;1.25;;;32.00;1.00;;;;;;5071951;28;36379;-77
2022/08/02 10:13:09;;;;;;;1.95;1.08;;;32.10;1.00;;;;;;5089505;28;34309;-77
2022/08/02 10:15:37;;;;;;;1.40;1.27;;;32.40;1.00;;;;;;5108113;28;34354;-80
2022/08/02 10:18:06;;;;;;;1.58;1.20;;;32.30;1.00;;;;;;5088046;28;34277;-78
2022/08/02 10:20:43;;;;;;;1.52;1.30;;;32.40;1.00;;;;;;5071343;28;36291;-77
2022/08/02 10:23:12;;;;;;;4.82;1.50;;;32.20;1.00;;;;;;5089901;28;34082;-80
2022/08/02 10:25:39;;;;;;;2.40;1.27;;;32.30;1.00;;;;;;5089926;28;34204;-77
2022/08/02 10:28:07;;;;;;;1.40;1.02;;;32.50;1.00;;;;;;5089714;28;34218;-76
2022/08/02 10:30:36;;;;;;;1.00;0.90;;;32.50;1.00;;;;;;5071645;28;35544;-78
2022/08/02 10:33:04;;;;;;;1.30;1.20;;;32.60;1.00;;;;;;5089307;28;34293;-80
2022/08/02 10:35:36;;;;;;;1.52;1.17;;;32.50;1.00;;;;;;5097567;28;34519;-79
2022/08/02 10:38:06;;;;;;;1.30;1.20;;;32.60;1.00;;;;;;5105847;27;34186;-77
2022/08/02 10:40:50;;;;;;;1.30;1.20;;;32.80;1.00;;;;;;5074433;28;36881;-78
2022/08/02 10:43:39;;;;;;;1.20;1.15;;;32.70;1.00;;;;;;5106110;28;34332;-78
2022/08/02 10:46:33;;;;;;;1.55;1.10;;;32.80;1.00;;;;;;5092264;27;34005;-79
2022/08/02 10:49:11;;;;;;;1.05;1.00;;;33.10;1.00;;;;;;5106343;28;34106;-77
2022/08/02 10:51:54;;;;;;;1.25;1.08;;;33.40;1.00;;;;;;5074558;27;37938;-78
2022/08/02 10:54:23;;;;;;;1.88;1.08;;;33.60;1.00;;;;;;5073085;28;34116;-78
2022/08/02 10:56:51;;;;;;;1.15;1.10;;;33.50;1.00;;;;;;5123647;27;34075;-78
2022/08/02 10:59:34;;;;;;;2.03;1.00;;;33.40;1.00;;;;;;5089340;28;34169;-79
2022/08/02 11:05:07;;;;;;;0.90;0.90;;;33.10;1.00;;;;;;5092703;28;34132;-79
2022/08/02 11:07:37;;;;;;;1.80;1.27;;;33.00;1.00;;;;;;5089445;28;34387;-77
2022/08/02 11:10:34;;;;;;;1.35;1.15;;;32.90;1.00;;;;;;5106109;28;34278;-78
2022/08/02 11:13:09;;;;;;;1.15;1.00;;;32.80;1.00;;;;;;5115059;27;36949;-81
2022/08/02 11:16:00;;;;;;;2.97;1.00;;;32.80;1.00;;;;;;5094406;28;34299;-79
2022/08/02 11:19:05;;;;;;;5.05;1.13;;;32.80;1.00;;;;;;5095797;27;34454;-78
2022/08/02 11:21:33;;;;;;;1.30;0.93;;;33.00;1.00;;;;;;5107019;27;34431;-77
2022/08/02 11:24:30;;;;;;;1.27;1.17;;;33.20;1.00;;;;;;5072314;27;36117;-81
2022/08/02 11:27:16;;;;;;;1.60;1.05;;;33.40;1.00;;;;;;5091351;28;34140;-78
2022/08/02 11:29:44;;;;;;;1.83;1.10;;;33.50;1.00;;;;;;5109258;27;34123;-80
2022/08/02 11:32:21;;;;;;;2.25;1.10;;;33.50;1.00;;;;;;5099805;27;34138;-77
2022/08/02 11:34:50;;;;;;;0.98;0.98;;;33.40;1.00;;;;;;5090654;28;35762;-77
2022/08/02 11:37:41;;;;;;;1.60;1.02;;;33.50;1.00;;;;;;5111500;27;34158;-77
2022/08/02 11:40:10;;;;;;;2.28;1.20;;;33.60;1.00;;;;;;5083684;28;34134;-77
2022/08/02 11:42:38;;;;;;;2.15;1.27;;;33.70;1.00;;;;;;5096012;28;34129;-79
2022/08/02 11:45:10;;;;;;;1.50;1.13;;;33.50;1.00;;;;;;5110236;27;35658;-82
2022/08/02 11:47:52;;;;;;;1.10;1.02;;;33.40;1.00;;;;;;5078217;28;33673;-78
2022/08/02 11:50:23;;;;;;;1.33;1.10;;;33.60;1.00;;;;;;5105408;27;34234;-78
2022/08/02 11:52:52;;;;;;;2.95;1.10;;;33.60;1.00;;;;;;5108288;27;34237;-78
2022/08/02 11:55:27;;;;;;;1.02;0.93;;;33.60;1.00;;;;;;5103359;27;35876;-77
2022/08/02 11:58:03;;;;;;;2.17;0.93;;;33.60;1.00;;;;;;5087771;28;34223;-77
2022/08/02 12:00:29;;;;;;;5.22;0.90;;;33.50;1.00;;;;;;5063869;28;34385;-81
2022/08/02 12:02:55;;;;;;;1.98;0.90;;;33.60;1.00;;;;;;5091996;28;34354;-78
2022/08/02 12:05:23;;;;;;;2.65;0.90;;;33.50;1.00;;;;;;5088655;28;34216;-77
2022/08/02 12:07:51;;;;;;;1.00;0.77;;;33.50;1.00;;;;;;5085762;28;34431;-80
2022/08/02 12:10:19;;;;;;;0.80;0.80;;;33.60;1.00;;;;;;5107939;27;35390;-78
2022/08/02 12:12:55;;;;;;;0.88;0.88;;;33.50;1.00;;;;;;5103432;27;34248;-81
2022/08/02 12:15:40;;;;;;;1.10;1.00;;;33.70;1.00;;;;;;5111912;27;35790;-81
2022/08/02 12:20:57;;;;;;;1.25;1.15;;;33.50;1.00;;;;;;5098129;27;34213;-78
2022/08/02 12:23:24;;;;;;;1.40;1.00;;;33.50;1.00;;;;;;5077116;27;34166;-79
2022/08/02 12:26:06;;;;;;;0.90;0.90;;;33.60;1.00;;;;;;5087972;28;35726;-80
2022/08/02 12:28:38;;;;;;;7.32;1.10;;;33.70;1.00;;;;;;5096794;27;35481;-78
2022/08/02 12:31:06;;;;;;;0.80;0.70;;;33.70;1.00;;;;;;5093996;27;34321;-78
2022/08/02 12:33:49;;;;;;;1.05;0.77;;;33.80;1.00;;;;;;5099223;27;34237;-78
2022/08/02 12:36:21;;;;;;;0.80;0.80;;;33.90;1.00;;;;;;5105695;27;35679;-77
2022/08/02 12:38:52;;;;;;;1.00;0.88;;;34.00;1.00;;;;;;5097159;28;34245;-77
2022/08/02 12:41:19;;;;;;;0.80;0.80;;;34.00;1.00;;;;;;5086918;28;34886;-77
2022/08/02 12:43:45;;;;;;;1.00;1.00;;;34.00;1.00;;;;;;5109043;27;34387;-81
2022/08/02 12:46:17;;;;;;;0.70;0.70;;;34.20;1.00;;;;;;5088107;27;35594;-80
2022/08/02 12:48:43;;;;;;;0.80;0.80;;;34.20;1.00;;;;;;5084892;27;34124;-78
2022/08/02 12:51:33;;;;;;;0.80;0.80;;;34.20;1.00;;;;;;5097387;28;34180;-78
2022/08/02 12:54:17;;;;;;;0.93;0.85;;;34.10;1.00;;;;;;5087123;28;34327;-80
2022/08/02 12:56:44;;;;;;;0.73;0.73;;;34.20;1.00;;;;;;5088085;28;35715;-79
2022/08/02 12:59:10;;;;;;;3.08;0.80;;;34.10;1.00;;;;;;5096948;28;34051;-78
2022/08/02 13:01:36;;;;;;;0.77;0.77;;;34.00;1.00;;;;;;5087694;28;34342;-78
2022/08/02 13:04:03;;;;;;;1.23;0.82;;;34.10;1.00;;;;;;5087048;28;34154;-79
2022/08/02 13:06:29;;;;;;;3.55;0.88;;;34.10;1.00;;;;;;5071925;28;36558;-80
2022/08/02 13:08:57;;;;;;;0.70;0.70;;;33.90;1.00;;;;;;5070628;28;34309;-81
2022/08/02 13:11:26;;;;;;;1.95;1.20;;;33.90;1.00;;;;;;5083210;28;34365;-78
2022/08/02 13:13:53;;;;;;;0.68;0.68;;;33.80;1.00;;;;;;5052534;27;34237;-80